Time;durP1;ratioP1;P1;durP2;ratioP2;P2;SDS_P1;SDS_P2;PMS_P1;PMS_P2;Temp;Humidity;BMP_temperature;BMP_pressure;BME280_temperature;BME280_humidity;BME280_pressure;Samples;Min_cycle;Max_cycle;Signal;HPM_P1;HPM_P2
2021/10/06 00:00:38;;;;;;;4.60;2.23;;;;;;;;;;5014299;28;20435;-49
2021/10/06 00:03:04;;;;;;;5.10;2.43;;;;;;;;;;5014088;28;20443;-48
2021/10/06 00:05:30;;;;;;;3.40;2.63;;;;;;;;;;5014349;28;20406;-50
2021/10/06 00:07:56;;;;;;;3.00;2.67;;;;;;;;;;5014098;28;20403;-47
2021/10/06 00:10:22;;;;;;;3.93;2.60;;;;;;;;;;5013960;28;20431;-48
2021/10/06 00:12:48;;;;;;;3.50;2.33;;;;;;;;;;5013849;28;20414;-49
2021/10/06 00:15:15;;;;;;;4.57;2.40;;;;;;;;;;5013045;28;20439;-47
2021/10/06 00:17:41;;;;;;;3.63;2.40;;;;;;;;;;5013746;28;20420;-50
2021/10/06 00:20:07;;;;;;;5.23;2.37;;;;;;;;;;5013993;28;20474;-47
2021/10/06 00:22:33;;;;;;;2.50;2.27;;;;;;;;;;5013065;28;20419;-48
2021/10/06 00:24:59;;;;;;;3.63;2.43;;;;;;;;;;5011914;28;20428;-50
2021/10/06 00:27:25;;;;;;;2.73;2.50;;;;;;;;;;5013377;28;20754;-49
2021/10/06 00:29:51;;;;;;;6.07;2.50;;;;;;;;;;5013578;28;20439;-49
2021/10/06 00:32:17;;;;;;;2.70;1.97;;;;;;;;;;5013466;28;20403;-47
2021/10/06 00:34:43;;;;;;;7.87;2.40;;;;;;;;;;5012645;28;20407;-49
2021/10/06 00:37:09;;;;;;;2.50;2.30;;;;;;;;;;5013587;28;20446;-49
2021/10/06 00:39:35;;;;;;;2.60;2.23;;;;;;;;;;5011011;28;20459;-50
2021/10/06 00:42:01;;;;;;;5.37;2.30;;;;;;;;;;4992956;28;20617;-49
2021/10/06 00:44:32;;;;;;;5.97;2.20;;;;;;;;;;4993852;28;20494;-50
2021/10/06 00:46:58;;;;;;;5.00;2.90;;;;;;;;;;4993951;28;20404;-49
2021/10/06 00:49:24;;;;;;;3.00;2.50;;;;;;;;;;4993412;28;20434;-50
2021/10/06 00:51:49;;;;;;;7.50;2.30;;;;;;;;;;4995805;28;20439;-49
2021/10/06 00:54:15;;;;;;;4.80;2.63;;;;;;;;;;5012764;28;20481;-50
2021/10/06 00:56:41;;;;;;;2.00;1.80;;;;;;;;;;5013317;28;20404;-47
2021/10/06 00:59:07;;;;;;;2.63;2.00;;;;;;;;;;5013124;28;20875;-48
2021/10/06 01:01:33;;;;;;;5.87;1.90;;;;;;;;;;5012130;28;20490;-48
2021/10/06 01:04:01;;;;;;;3.63;1.60;;;;;;;;;;4996249;28;20549;-49
2021/10/06 01:06:27;;;;;;;3.27;2.27;;;;;;;;;;4992645;28;20408;-49
2021/10/06 01:08:53;;;;;;;4.30;2.13;;;;;;;;;;4992813;28;20411;-49
2021/10/06 01:11:19;;;;;;;1.77;1.57;;;;;;;;;;4993160;28;20448;-49
2021/10/06 01:13:45;;;;;;;5.23;2.50;;;;;;;;;;5003315;28;20431;-49
2021/10/06 01:16:11;;;;;;;2.13;1.93;;;;;;;;;;5011689;28;20411;-48
2021/10/06 01:18:37;;;;;;;3.03;2.33;;;;;;;;;;5012810;28;20878;-49
2021/10/06 01:21:21;;;;;;;3.77;2.10;;;;;;;;;;5012708;28;20411;-49
2021/10/06 01:23:49;;;;;;;4.03;1.83;;;;;;;;;;5012579;28;20458;-50
2021/10/06 01:26:18;;;;;;;4.10;1.83;;;;;;;;;;5012775;28;20414;-47
2021/10/06 01:28:48;;;;;;;6.23;2.00;;;;;;;;;;5012515;28;20395;-49
2021/10/06 01:31:14;;;;;;;2.60;1.97;;;;;;;;;;5012719;28;20837;-50
2021/10/06 01:33:40;;;;;;;2.17;2.00;;;;;;;;;;5012462;28;20506;-50
2021/10/06 01:36:06;;;;;;;3.20;2.17;;;;;;;;;;5011790;28;20778;-49
2021/10/06 01:38:32;;;;;;;9.30;2.13;;;;;;;;;;5012599;28;20411;-49
2021/10/06 01:40:58;;;;;;;3.93;1.77;;;;;;;;;;5012818;28;20879;-50
2021/10/06 01:43:24;;;;;;;10.93;1.97;;;;;;;;;;5012184;28;20538;-50
2021/10/06 01:45:50;;;;;;;8.43;2.20;;;;;;;;;;5012129;28;20886;-49
2021/10/06 01:48:16;;;;;;;5.10;2.00;;;;;;;;;;5012325;28;20896;-47
2021/10/06 01:50:43;;;;;;;4.00;1.77;;;;;;;;;;5012474;28;20423;-49
2021/10/06 01:53:11;;;;;;;5.43;2.20;;;;;;;;;;5012073;28;20892;-49
2021/10/06 01:55:37;;;;;;;4.13;2.07;;;;;;;;;;5012356;28;20873;-48
2021/10/06 01:58:05;;;;;;;5.90;2.03;;;;;;;;;;5012241;28;20668;-49
2021/10/06 02:00:31;;;;;;;7.10;2.80;;;;;;;;;;5012131;28;20438;-50
2021/10/06 02:02:57;;;;;;;3.63;1.80;;;;;;;;;;5010815;28;20471;-50
2021/10/06 02:05:23;;;;;;;4.07;2.00;;;;;;;;;;5011660;28;20507;-49
2021/10/06 02:07:49;;;;;;;4.70;1.83;;;;;;;;;;5012114;28;20887;-49
2021/10/06 02:10:15;;;;;;;3.20;2.50;;;;;;;;;;5011865;28;20470;-49
2021/10/06 02:12:41;;;;;;;4.73;2.13;;;;;;;;;;5007013;28;20932;-49
2021/10/06 02:15:07;;;;;;;3.13;2.30;;;;;;;;;;4992478;28;20823;-50
2021/10/06 02:17:33;;;;;;;3.20;2.30;;;;;;;;;;4992438;28;20404;-50
2021/10/06 02:19:59;;;;;;;5.80;2.33;;;;;;;;;;4992412;28;20427;-49
2021/10/06 02:22:25;;;;;;;1.90;1.70;;;;;;;;;;4992182;28;20885;-49
2021/10/06 02:24:51;;;;;;;6.50;2.47;;;;;;;;;;4992333;28;20464;-48
2021/10/06 02:27:17;;;;;;;5.23;2.50;;;;;;;;;;4992349;28;20409;-48
2021/10/06 02:29:43;;;;;;;6.33;3.30;;;;;;;;;;5008262;28;20469;-47
2021/10/06 02:32:09;;;;;;;8.60;2.60;;;;;;;;;;5011020;28;20811;-47
2021/10/06 02:34:35;;;;;;;3.10;2.20;;;;;;;;;;5011919;28;20490;-47
2021/10/06 02:37:01;;;;;;;5.60;2.40;;;;;;;;;;5011893;28;20414;-50
2021/10/06 02:39:29;;;;;;;7.23;2.30;;;;;;;;;;5011612;28;20488;-49
2021/10/06 02:41:55;;;;;;;2.40;2.20;;;;;;;;;;5011612;28;20407;-49
2021/10/06 02:44:21;;;;;;;2.47;2.27;;;;;;;;;;5011680;28;20447;-49
2021/10/06 02:46:47;;;;;;;4.90;1.97;;;;;;;;;;5011817;28;20414;-50
2021/10/06 02:49:12;;;;;;;4.17;2.57;;;;;;;;;;5011694;28;20818;-50
2021/10/06 02:51:38;;;;;;;6.20;2.20;;;;;;;;;;5011596;28;20505;-46
2021/10/06 02:54:05;;;;;;;1.90;1.80;;;;;;;;;;5011622;28;20465;-47
2021/10/06 02:56:30;;;;;;;2.50;2.13;;;;;;;;;;5011693;28;20490;-49
2021/10/06 02:58:56;;;;;;;6.10;2.50;;;;;;;;;;5013451;28;20518;-47
2021/10/06 03:01:22;;;;;;;4.40;2.03;;;;;;;;;;5015581;28;20951;-50
2021/10/06 03:03:48;;;;;;;5.60;2.53;;;;;;;;;;5013398;28;20489;-50
2021/10/06 03:06:14;;;;;;;5.47;3.20;;;;;;;;;;5015066;28;20407;-50
2021/10/06 03:08:40;;;;;;;2.97;2.27;;;;;;;;;;5015344;28;20422;-50
2021/10/06 03:11:06;;;;;;;4.10;2.33;;;;;;;;;;5015239;28;20755;-49
2021/10/06 03:13:32;;;;;;;5.93;2.17;;;;;;;;;;5013756;28;20431;-49
2021/10/06 03:15:59;;;;;;;3.77;2.13;;;;;;;;;;5014515;28;20494;-49
2021/10/06 03:18:25;;;;;;;5.40;2.00;;;;;;;;;;5015150;28;20414;-50
2021/10/06 03:20:53;;;;;;;6.60;2.63;;;;;;;;;;5014851;28;20426;-50
2021/10/06 03:23:19;;;;;;;7.40;2.50;;;;;;;;;;5014578;28;20454;-49
2021/10/06 03:25:46;;;;;;;3.67;2.43;;;;;;;;;;5015059;28;20442;-50
2021/10/06 03:28:12;;;;;;;4.50;2.47;;;;;;;;;;5014923;28;20407;-49
2021/10/06 03:30:38;;;;;;;5.33;2.60;;;;;;;;;;5014651;28;20499;-48
2021/10/06 03:33:04;;;;;;;7.20;2.60;;;;;;;;;;5014752;28;20406;-50
2021/10/06 03:35:30;;;;;;;4.00;2.33;;;;;;;;;;5014811;28;20407;-49
2021/10/06 03:37:56;;;;;;;6.00;2.63;;;;;;;;;;5015242;28;20738;-48
2021/10/06 03:40:22;;;;;;;7.40;3.30;;;;;;;;;;5015126;28;20425;-48
2021/10/06 03:42:49;;;;;;;5.93;2.60;;;;;;;;;;5014270;28;20457;-48
2021/10/06 03:45:15;;;;;;;8.93;2.57;;;;;;;;;;5014746;28;20460;-49
2021/10/06 03:47:41;;;;;;;2.90;2.30;;;;;;;;;;5004226;28;20423;-48
2021/10/06 03:50:08;;;;;;;3.40;2.10;;;;;;;;;;4993911;28;20576;-49
2021/10/06 03:52:34;;;;;;;12.03;3.07;;;;;;;;;;4994647;28;20400;-47
2021/10/06 03:55:00;;;;;;;9.70;2.53;;;;;;;;;;4994617;28;20407;-49
2021/10/06 03:57:26;;;;;;;5.47;2.37;;;;;;;;;;4994521;28;20757;-50
2021/10/06 03:59:52;;;;;;;10.93;4.17;;;;;;;;;;4994679;28;20487;-50
2021/10/06 04:02:18;;;;;;;4.40;2.40;;;;;;;;;;4994512;28;20906;-49
2021/10/06 04:04:44;;;;;;;5.90;2.30;;;;;;;;;;4994593;28;20467;-51
2021/10/06 04:07:10;;;;;;;5.13;2.60;;;;;;;;;;4994587;28;20400;-49
2021/10/06 04:09:36;;;;;;;4.93;2.20;;;;;;;;;;4994812;28;20765;-48
2021/10/06 04:12:02;;;;;;;6.07;2.37;;;;;;;;;;4994289;28;20856;-48
2021/10/06 04:14:28;;;;;;;6.73;2.40;;;;;;;;;;4994498;28;20417;-49
2021/10/06 04:16:53;;;;;;;3.10;2.10;;;;;;;;;;4994638;28;20401;-48
2021/10/06 04:19:20;;;;;;;3.33;2.43;;;;;;;;;;4994345;28;20450;-49
2021/10/06 04:21:46;;;;;;;3.93;2.63;;;;;;;;;;4994206;28;20904;-50
2021/10/06 04:24:11;;;;;;;4.50;1.97;;;;;;;;;;4994235;28;20460;-50
2021/10/06 04:26:37;;;;;;;2.87;2.20;;;;;;;;;;4999231;28;20422;-50
2021/10/06 04:29:03;;;;;;;6.93;2.60;;;;;;;;;;5032242;28;20442;-48
2021/10/06 04:31:29;;;;;;;7.30;2.50;;;;;;;;;;5033412;28;20395;-50
2021/10/06 04:33:55;;;;;;;5.13;2.57;;;;;;;;;;5033367;28;20410;-50
2021/10/06 04:36:21;;;;;;;7.67;2.80;;;;;;;;;;5033890;28;20857;-49
2021/10/06 04:38:47;;;;;;;9.17;2.50;;;;;;;;;;5033241;28;20403;-49
2021/10/06 04:41:13;;;;;;;8.03;2.67;;;;;;;;;;5033297;28;20392;-47
2021/10/06 04:43:39;;;;;;;7.13;3.00;;;;;;;;;;5033070;28;20454;-48
2021/10/06 04:46:05;;;;;;;6.80;2.43;;;;;;;;;;5033298;28;20903;-48
2021/10/06 04:48:31;;;;;;;4.47;2.63;;;;;;;;;;5033205;28;20404;-49
2021/10/06 04:50:57;;;;;;;4.67;2.70;;;;;;;;;;5033120;28;20497;-50
2021/10/06 04:53:23;;;;;;;7.90;2.97;;;;;;;;;;5032917;28;20430;-50
2021/10/06 04:55:49;;;;;;;6.13;2.80;;;;;;;;;;5033035;28;20402;-49
2021/10/06 04:58:15;;;;;;;3.67;2.50;;;;;;;;;;5015075;28;20447;-50
2021/10/06 05:00:41;;;;;;;3.87;2.70;;;;;;;;;;5013290;28;20427;-50
2021/10/06 05:03:11;;;;;;;8.87;3.00;;;;;;;;;;5012864;28;20490;-50
2021/10/06 05:05:38;;;;;;;4.47;2.37;;;;;;;;;;5012733;28;20822;-50
2021/10/06 05:08:04;;;;;;;6.70;2.63;;;;;;;;;;5012010;28;20479;-48
2021/10/06 05:10:30;;;;;;;3.77;2.20;;;;;;;;;;5012719;28;20423;-49
2021/10/06 05:12:56;;;;;;;6.73;2.50;;;;;;;;;;5012085;28;20406;-48
2021/10/06 05:15:22;;;;;;;3.07;2.00;;;;;;;;;;5012482;28;20403;-49
2021/10/06 05:17:48;;;;;;;8.23;2.63;;;;;;;;;;5012750;28;20403;-47
2021/10/06 05:20:14;;;;;;;8.40;2.10;;;;;;;;;;5012079;28;20436;-47
2021/10/06 05:22:40;;;;;;;5.93;2.40;;;;;;;;;;5011344;28;20400;-49
2021/10/06 05:25:06;;;;;;;4.93;2.30;;;;;;;;;;5012427;28;20407;-48
2021/10/06 05:27:33;;;;;;;7.40;2.83;;;;;;;;;;5012922;28;20404;-48
2021/10/06 05:29:59;;;;;;;5.23;2.27;;;;;;;;;;5012538;28;20503;-50
2021/10/06 05:32:25;;;;;;;3.30;2.37;;;;;;;;;;5013386;28;20962;-49
2021/10/06 05:34:51;;;;;;;3.50;2.30;;;;;;;;;;5012642;28;20494;-48
2021/10/06 05:37:17;;;;;;;8.50;2.57;;;;;;;;;;5012629;28;20411;-48
2021/10/06 05:39:43;;;;;;;6.40;2.70;;;;;;;;;;5012468;28;20484;-48
2021/10/06 05:42:09;;;;;;;2.90;2.40;;;;;;;;;;5011462;28;20488;-48
2021/10/06 05:44:35;;;;;;;2.77;1.90;;;;;;;;;;5011655;28;20455;-47
2021/10/06 05:47:01;;;;;;;4.17;2.03;;;;;;;;;;5012395;28;20410;-49
2021/10/06 05:49:27;;;;;;;10.70;2.43;;;;;;;;;;5012429;28;20419;-49
2021/10/06 05:51:53;;;;;;;4.17;1.57;;;;;;;;;;5011449;28;20411;-47
2021/10/06 05:54:19;;;;;;;4.37;1.90;;;;;;;;;;5011189;28;20924;-49
2021/10/06 05:56:45;;;;;;;3.97;1.90;;;;;;;;;;5012143;28;20913;-48
2021/10/06 05:59:11;;;;;;;3.70;2.27;;;;;;;;;;5012239;28;20430;-49
2021/10/06 06:01:38;;;;;;;6.30;2.10;;;;;;;;;;5011809;28;20962;-49
2021/10/06 06:04:04;;;;;;;3.30;2.23;;;;;;;;;;5009461;28;20466;-49
2021/10/06 06:06:30;;;;;;;2.57;1.70;;;;;;;;;;5012066;28;20413;-48
2021/10/06 06:08:56;;;;;;;2.20;2.00;;;;;;;;;;5012071;28;20423;-50
2021/10/06 06:11:22;;;;;;;5.00;2.47;;;;;;;;;;5012193;28;20769;-50
2021/10/06 06:13:48;;;;;;;4.63;2.13;;;;;;;;;;5010569;28;20812;-49
2021/10/06 06:16:14;;;;;;;4.90;1.80;;;;;;;;;;5011207;28;20476;-49
2021/10/06 06:18:40;;;;;;;3.03;2.17;;;;;;;;;;5011953;28;20403;-49
2021/10/06 06:21:06;;;;;;;3.30;2.07;;;;;;;;;;5011919;28;20501;-49
2021/10/06 06:23:32;;;;;;;5.50;2.03;;;;;;;;;;5011905;28;20458;-48
2021/10/06 06:25:59;;;;;;;5.50;1.83;;;;;;;;;;5010082;28;20422;-48
2021/10/06 06:28:25;;;;;;;5.83;2.27;;;;;;;;;;5011808;28;20919;-48
2021/10/06 06:30:51;;;;;;;3.73;1.80;;;;;;;;;;5011656;28;20439;-48
2021/10/06 06:33:17;;;;;;;6.53;2.73;;;;;;;;;;5014024;28;20959;-48
2021/10/06 06:35:43;;;;;;;4.60;2.17;;;;;;;;;;5015718;28;20408;-49
2021/10/06 06:38:09;;;;;;;3.67;1.90;;;;;;;;;;5015855;28;20407;-47
2021/10/06 06:40:40;;;;;;;4.40;2.00;;;;;;;;;;5015835;28;20438;-47
2021/10/06 06:43:06;;;;;;;5.30;1.60;;;;;;;;;;5015503;28;20466;-49
2021/10/06 06:45:32;;;;;;;4.33;2.40;;;;;;;;;;5015743;28;20461;-49
2021/10/06 06:47:58;;;;;;;4.47;2.13;;;;;;;;;;5015621;28;20393;-49
2021/10/06 06:50:24;;;;;;;7.50;2.90;;;;;;;;;;5015948;28;20419;-48
2021/10/06 06:52:50;;;;;;;4.27;2.03;;;;;;;;;;5015316;28;20403;-49
2021/10/06 06:55:16;;;;;;;4.30;2.23;;;;;;;;;;5014367;28;20413;-48
2021/10/06 06:57:42;;;;;;;5.90;2.50;;;;;;;;;;5015458;28;20440;-48
2021/10/06 07:00:08;;;;;;;6.57;2.57;;;;;;;;;;5015442;28;20491;-49
2021/10/06 07:02:34;;;;;;;2.83;2.10;;;;;;;;;;5015149;28;20876;-48
2021/10/06 07:05:01;;;;;;;5.27;2.63;;;;;;;;;;5015488;28;20514;-50
2021/10/06 07:07:27;;;;;;;5.80;2.57;;;;;;;;;;5015049;28;20795;-47
2021/10/06 07:09:53;;;;;;;9.53;2.70;;;;;;;;;;5015223;28;20467;-49
2021/10/06 07:12:20;;;;;;;5.60;2.23;;;;;;;;;;5015121;28;20407;-48
2021/10/06 07:14:47;;;;;;;6.57;2.80;;;;;;;;;;5015138;28;20918;-49
2021/10/06 07:17:13;;;;;;;5.03;2.80;;;;;;;;;;5015139;28;20486;-49
2021/10/06 07:19:40;;;;;;;5.47;2.87;;;;;;;;;;5015069;28;20430;-49
2021/10/06 07:22:06;;;;;;;8.00;2.77;;;;;;;;;;5014889;28;20483;-48
2021/10/06 07:24:32;;;;;;;4.07;3.00;;;;;;;;;;5015163;28;20463;-49
2021/10/06 07:26:58;;;;;;;5.80;3.00;;;;;;;;;;5015085;28;20558;-47
2021/10/06 07:29:24;;;;;;;10.43;3.50;;;;;;;;;;5013592;28;20967;-49
2021/10/06 07:31:50;;;;;;;9.70;2.60;;;;;;;;;;5014501;28;20442;-48
2021/10/06 07:34:16;;;;;;;5.93;3.97;;;;;;;;;;5014914;28;20407;-48
2021/10/06 07:36:42;;;;;;;5.20;2.83;;;;;;;;;;5014785;28;20826;-48
2021/10/06 07:39:09;;;;;;;4.33;2.87;;;;;;;;;;5014752;28;20521;-49
2021/10/06 07:41:35;;;;;;;10.20;3.87;;;;;;;;;;5014593;28;20497;-47
2021/10/06 07:44:01;;;;;;;3.90;3.23;;;;;;;;;;5013798;28;20593;-48
2021/10/06 07:46:27;;;;;;;10.37;3.50;;;;;;;;;;5014629;28;20864;-48
2021/10/06 07:48:54;;;;;;;9.47;4.10;;;;;;;;;;5014526;28;20745;-48
2021/10/06 07:51:20;;;;;;;4.30;2.83;;;;;;;;;;5014598;28;20486;-48
2021/10/06 07:53:46;;;;;;;4.07;2.40;;;;;;;;;;5014297;28;20411;-47
2021/10/06 07:56:12;;;;;;;9.83;2.80;;;;;;;;;;5014481;28;20957;-47
2021/10/06 07:58:38;;;;;;;4.53;2.47;;;;;;;;;;5014351;28;20758;-47
2021/10/06 08:01:04;;;;;;;9.20;6.37;;;;;;;;;;5014218;28;20427;-48
2021/10/06 08:03:30;;;;;;;6.73;3.87;;;;;;;;;;5014080;28;20462;-47
2021/10/06 08:05:56;;;;;;;12.10;4.47;;;;;;;;;;5014279;28;20402;-46
2021/10/06 08:08:26;;;;;;;3.30;2.60;;;;;;;;;;5014139;28;20404;-47
2021/10/06 08:10:53;;;;;;;2.47;2.13;;;;;;;;;;5014078;28;20927;-47
2021/10/06 08:13:19;;;;;;;5.00;2.37;;;;;;;;;;5013855;28;20781;-49
2021/10/06 08:15:45;;;;;;;3.50;2.53;;;;;;;;;;5014034;28;20415;-47
2021/10/06 08:18:12;;;;;;;3.00;1.90;;;;;;;;;;5013209;28;20935;-48
2021/10/06 08:20:38;;;;;;;2.37;2.17;;;;;;;;;;5013851;28;20454;-49
2021/10/06 08:23:04;;;;;;;3.60;2.10;;;;;;;;;;5013499;28;20949;-48
2021/10/06 08:25:30;;;;;;;6.63;2.40;;;;;;;;;;5013983;28;20407;-49
2021/10/06 08:27:56;;;;;;;6.00;2.40;;;;;;;;;;5013674;28;20888;-49
2021/10/06 08:30:25;;;;;;;6.80;2.03;;;;;;;;;;5013507;28;20506;-48
2021/10/06 08:32:51;;;;;;;5.40;1.80;;;;;;;;;;5013374;28;20947;-48
2021/10/06 08:35:17;;;;;;;5.87;2.40;;;;;;;;;;5013846;28;20443;-48
2021/10/06 08:37:43;;;;;;;4.43;2.90;;;;;;;;;;5013655;28;20842;-47
2021/10/06 08:40:09;;;;;;;3.00;2.40;;;;;;;;;;5013606;28;20426;-48
2021/10/06 08:42:36;;;;;;;10.60;2.00;;;;;;;;;;5013179;28;20446;-49
2021/10/06 08:45:05;;;;;;;5.93;2.23;;;;;;;;;;5013352;28;20986;-49
2021/10/06 08:47:32;;;;;;;3.27;2.43;;;;;;;;;;5013524;28;20931;-49
2021/10/06 08:49:58;;;;;;;4.73;2.50;;;;;;;;;;5013299;28;20419;-49
2021/10/06 08:52:24;;;;;;;3.80;2.23;;;;;;;;;;5013193;28;20438;-48
2021/10/06 08:54:50;;;;;;;3.47;2.33;;;;;;;;;;5013324;28;20439;-48
2021/10/06 08:57:16;;;;;;;5.43;2.10;;;;;;;;;;5012147;28;20562;-48
2021/10/06 08:59:45;;;;;;;3.53;2.47;;;;;;;;;;5013196;28;20419;-47
2021/10/06 09:02:12;;;;;;;3.23;2.00;;;;;;;;;;5013071;28;20413;-49
2021/10/06 09:04:38;;;;;;;8.30;2.40;;;;;;;;;;5013026;28;20462;-48
2021/10/06 09:07:05;;;;;;;7.80;2.40;;;;;;;;;;5013097;28;20412;-48
2021/10/06 09:09:35;;;;;;;4.50;2.20;;;;;;;;;;5012352;28;20425;-49
2021/10/06 09:12:03;;;;;;;2.83;2.53;;;;;;;;;;5011748;28;20399;-48
2021/10/06 09:14:30;;;;;;;5.07;2.37;;;;;;;;;;5011706;28;20456;-49
2021/10/06 09:17:06;;;;;;;3.00;1.80;;;;;;;;;;5013175;28;20880;-49
2021/10/06 09:19:39;;;;;;;6.90;1.97;;;;;;;;;;5012883;28;20461;-48
2021/10/06 09:22:11;;;;;;;3.53;2.83;;;;;;;;;;5012704;28;20433;-49
2021/10/06 09:24:49;;;;;;;2.43;2.07;;;;;;;;;;5012825;28;20825;-48
2021/10/06 09:27:17;;;;;;;4.80;2.30;;;;;;;;;;5012801;28;20813;-48
2021/10/06 09:29:53;;;;;;;5.57;2.73;;;;;;;;;;5012607;28;20513;-48
2021/10/06 09:32:28;;;;;;;3.03;2.33;;;;;;;;;;5012544;28;20398;-49
2021/10/06 09:35:07;;;;;;;3.33;2.23;;;;;;;;;;5012617;28;20399;-49
2021/10/06 09:37:33;;;;;;;3.57;2.20;;;;;;;;;;5012649;28;20498;-47
2021/10/06 09:39:59;;;;;;;4.87;2.37;;;;;;;;;;5012476;28;20427;-48
2021/10/06 09:42:25;;;;;;;6.10;2.60;;;;;;;;;;5012288;28;20407;-48
2021/10/06 09:44:52;;;;;;;4.30;2.50;;;;;;;;;;5012466;28;20521;-49
2021/10/06 09:47:18;;;;;;;5.17;2.67;;;;;;;;;;5012409;28;20408;-49
2021/10/06 09:49:44;;;;;;;10.03;3.20;;;;;;;;;;5012453;28;20427;-48
2021/10/06 09:52:16;;;;;;;3.63;2.60;;;;;;;;;;5012126;28;20417;-48
2021/10/06 09:54:52;;;;;;;4.20;2.43;;;;;;;;;;5012341;28;20404;-47
2021/10/06 09:57:35;;;;;;;6.60;2.70;;;;;;;;;;5012412;28;20407;-49
2021/10/06 10:00:09;;;;;;;3.50;2.20;;;;;;;;;;5011010;28;20558;-49
2021/10/06 10:02:36;;;;;;;2.40;2.20;;;;;;;;;;5012150;28;20412;-48
2021/10/06 10:05:02;;;;;;;5.07;2.67;;;;;;;;;;5012175;28;20457;-50
2021/10/06 10:07:28;;;;;;;5.13;2.40;;;;;;;;;;5011988;28;20416;-49
2021/10/06 10:09:54;;;;;;;7.47;2.27;;;;;;;;;;5012044;28;20945;-49
2021/10/06 10:12:22;;;;;;;4.83;2.80;;;;;;;;;;5011889;28;20403;-49
2021/10/06 10:14:48;;;;;;;3.17;2.50;;;;;;;;;;5012208;28;20405;-48
2021/10/06 10:17:14;;;;;;;3.80;2.30;;;;;;;;;;5012103;28;20408;-48
2021/10/06 10:19:40;;;;;;;3.83;3.10;;;;;;;;;;5012181;28;20844;-49
2021/10/06 10:22:07;;;;;;;2.73;2.53;;;;;;;;;;5011857;28;20443;-48
2021/10/06 10:24:43;;;;;;;4.53;2.50;;;;;;;;;;5011958;28;20509;-49
2021/10/06 10:27:09;;;;;;;3.80;2.70;;;;;;;;;;5012231;28;20406;-49
2021/10/06 10:29:35;;;;;;;7.57;2.80;;;;;;;;;;5011878;28;20937;-48
2021/10/06 10:32:06;;;;;;;6.27;2.73;;;;;;;;;;5011637;28;20412;-49
2021/10/06 10:34:50;;;;;;;10.57;2.90;;;;;;;;;;5011959;28;20754;-49
2021/10/06 10:37:16;;;;;;;5.23;2.43;;;;;;;;;;5011830;28;20454;-47
2021/10/06 10:39:42;;;;;;;3.40;2.47;;;;;;;;;;5011832;28;20423;-49
2021/10/06 10:42:08;;;;;;;2.80;2.47;;;;;;;;;;5011503;28;20759;-48
2021/10/06 10:44:40;;;;;;;2.93;2.60;;;;;;;;;;5011891;28;20462;-48
2021/10/06 10:47:07;;;;;;;3.20;2.40;;;;;;;;;;5011861;28;20422;-49
2021/10/06 10:49:43;;;;;;;2.93;2.73;;;;;;;;;;5011779;28;20419;-48
2021/10/06 10:52:09;;;;;;;3.93;2.50;;;;;;;;;;5011481;28;20403;-48
2021/10/06 10:54:35;;;;;;;8.50;2.67;;;;;;;;;;5011784;28;20414;-48
2021/10/06 10:57:05;;;;;;;6.20;2.80;;;;;;;;;;5011735;28;20415;-48
2021/10/06 10:59:41;;;;;;;3.83;3.10;;;;;;;;;;5011731;28;20423;-48
2021/10/06 11:02:14;;;;;;;5.17;3.40;;;;;;;;;;5011394;28;20400;-48
2021/10/06 11:04:44;;;;;;;4.17;3.10;;;;;;;;;;5011819;28;20459;-47
2021/10/06 11:07:15;;;;;;;4.73;3.43;;;;;;;;;;5011705;28;20487;-48
2021/10/06 11:09:42;;;;;;;3.57;3.27;;;;;;;;;;5011587;28;20426;-47
2021/10/06 11:12:08;;;;;;;4.63;3.80;;;;;;;;;;5011306;28;20410;-49
2021/10/06 11:14:38;;;;;;;3.70;3.37;;;;;;;;;;5011639;28;20412;-49
2021/10/06 11:17:12;;;;;;;4.00;3.70;;;;;;;;;;5011536;28;20432;-49
2021/10/06 11:19:48;;;;;;;4.93;3.90;;;;;;;;;;5012626;28;20504;-47
2021/10/06 11:22:23;;;;;;;4.77;3.87;;;;;;;;;;5014796;28;20799;-50
2021/10/06 11:24:49;;;;;;;9.40;4.03;;;;;;;;;;5014974;28;20458;-49
2021/10/06 11:27:15;;;;;;;6.77;3.30;;;;;;;;;;5015011;28;21017;-49
2021/10/06 11:29:42;;;;;;;6.83;3.30;;;;;;;;;;5013796;28;20450;-50
2021/10/06 11:32:08;;;;;;;4.10;3.80;;;;;;;;;;5015469;28;20469;-46
2021/10/06 11:34:43;;;;;;;6.93;3.70;;;;;;;;;;5015154;28;20415;-46
2021/10/06 11:37:14;;;;;;;4.40;3.10;;;;;;;;;;5014757;28;20406;-46
2021/10/06 11:39:40;;;;;;;4.63;3.40;;;;;;;;;;5014671;28;20422;-47
2021/10/06 11:42:06;;;;;;;3.77;3.40;;;;;;;;;;5014367;28;20412;-47
2021/10/06 11:44:33;;;;;;;3.67;3.23;;;;;;;;;;5014811;28;20463;-46
2021/10/06 11:47:04;;;;;;;3.37;3.10;;;;;;;;;;5014595;28;20411;-46
2021/10/06 11:49:30;;;;;;;3.70;2.97;;;;;;;;;;5014526;28;20439;-46
2021/10/06 11:51:57;;;;;;;7.03;3.30;;;;;;;;;;5014242;28;20407;-49
2021/10/06 11:54:26;;;;;;;3.90;3.23;;;;;;;;;;5014316;28;20896;-46
2021/10/06 11:56:54;;;;;;;4.37;3.00;;;;;;;;;;5014489;28;20822;-46
2021/10/06 11:59:27;;;;;;;3.53;2.83;;;;;;;;;;5014250;28;20851;-46
2021/10/06 12:01:54;;;;;;;4.53;3.00;;;;;;;;;;5014183;28;20431;-46
2021/10/06 12:04:22;;;;;;;5.63;2.77;;;;;;;;;;5014231;28;20452;-46
2021/10/06 12:06:50;;;;;;;2.70;2.50;;;;;;;;;;5014055;28;20411;-46
2021/10/06 12:09:17;;;;;;;3.33;2.83;;;;;;;;;;5014130;28;20477;-45
2021/10/06 12:11:46;;;;;;;3.90;3.30;;;;;;;;;;5014001;28;20411;-46
2021/10/06 12:14:29;;;;;;;2.77;2.67;;;;;;;;;;5014091;28;20402;-46
2021/10/06 12:17:12;;;;;;;3.90;3.53;;;;;;;;;;5014088;28;20403;-46
2021/10/06 12:19:39;;;;;;;3.70;3.10;;;;;;;;;;5013917;28;20418;-46
2021/10/06 12:22:06;;;;;;;5.40;3.67;;;;;;;;;;5013615;28;20408;-46
2021/10/06 12:24:32;;;;;;;3.00;2.80;;;;;;;;;;5013858;28;21070;-46
2021/10/06 12:26:58;;;;;;;2.83;2.63;;;;;;;;;;5013861;28;20933;-48
2021/10/06 12:29:26;;;;;;;3.53;3.23;;;;;;;;;;5013645;28;20951;-48
2021/10/06 12:31:55;;;;;;;3.47;3.20;;;;;;;;;;5013261;28;20527;-46
2021/10/06 12:34:22;;;;;;;4.87;3.30;;;;;;;;;;5013761;28;20760;-48
2021/10/06 12:36:50;;;;;;;11.47;3.13;;;;;;;;;;5013675;28;20900;-46
2021/10/06 12:39:20;;;;;;;3.83;3.07;;;;;;;;;;5013303;28;20507;-47
2021/10/06 12:41:51;;;;;;;3.83;3.57;;;;;;;;;;5013362;28;20436;-50
2021/10/06 12:44:35;;;;;;;4.50;3.10;;;;;;;;;;5013340;28;20483;-48
2021/10/06 12:47:01;;;;;;;4.43;3.13;;;;;;;;;;5013160;28;20419;-46
2021/10/06 12:49:29;;;;;;;3.27;2.90;;;;;;;;;;5012798;28;20434;-46
2021/10/06 12:52:04;;;;;;;4.27;3.00;;;;;;;;;;5012001;28;20412;-47
2021/10/06 12:54:31;;;;;;;5.33;2.70;;;;;;;;;;5009566;28;20422;-47
2021/10/06 12:57:02;;;;;;;2.87;2.67;;;;;;;;;;5013098;28;20406;-46
2021/10/06 12:59:38;;;;;;;2.67;2.57;;;;;;;;;;5013294;28;20434;-46
2021/10/06 13:02:05;;;;;;;3.03;2.70;;;;;;;;;;5012870;28;20431;-47
2021/10/06 13:04:31;;;;;;;4.57;2.53;;;;;;;;;;5013052;28;20537;-46
2021/10/06 13:06:57;;;;;;;2.70;2.50;;;;;;;;;;5013135;28;20407;-47
2021/10/06 13:09:24;;;;;;;5.00;2.83;;;;;;;;;;5012805;28;20421;-46
2021/10/06 13:11:51;;;;;;;3.57;3.27;;;;;;;;;;5013165;28;20442;-46
2021/10/06 13:14:17;;;;;;;2.70;2.30;;;;;;;;;;5011979;28;20778;-46
2021/10/06 13:16:44;;;;;;;2.47;2.27;;;;;;;;;;5013035;28;20409;-46
2021/10/06 13:19:10;;;;;;;2.50;2.30;;;;;;;;;;5012920;28;20424;-46
2021/10/06 13:21:37;;;;;;;3.63;2.33;;;;;;;;;;5012705;28;20417;-47
2021/10/06 13:24:03;;;;;;;2.97;2.60;;;;;;;;;;5012449;28;20600;-46
2021/10/06 13:26:29;;;;;;;3.40;2.30;;;;;;;;;;5012677;28;20436;-45
2021/10/06 13:28:57;;;;;;;3.00;2.70;;;;;;;;;;5012622;28;20442;-46
2021/10/06 13:31:23;;;;;;;2.60;2.40;;;;;;;;;;5012652;28;20407;-49
2021/10/06 13:33:49;;;;;;;2.43;2.23;;;;;;;;;;5012523;28;20413;-46
2021/10/06 13:36:15;;;;;;;3.73;2.23;;;;;;;;;;5012668;28;20921;-45
2021/10/06 13:38:42;;;;;;;2.23;2.10;;;;;;;;;;5012855;28;20414;-46
2021/10/06 13:41:09;;;;;;;2.23;2.10;;;;;;;;;;5012441;28;20866;-46
2021/10/06 13:43:35;;;;;;;2.80;2.60;;;;;;;;;;5011603;28;20452;-46
2021/10/06 13:46:01;;;;;;;5.73;2.53;;;;;;;;;;5012083;28;20449;-46
2021/10/06 13:48:27;;;;;;;2.53;2.33;;;;;;;;;;5010879;28;20412;-46
2021/10/06 13:50:54;;;;;;;2.70;2.47;;;;;;;;;;5011352;28;20427;-46
2021/10/06 13:53:20;;;;;;;2.70;2.53;;;;;;;;;;5011491;28;20409;-46
2021/10/06 13:55:46;;;;;;;3.10;2.90;;;;;;;;;;5012454;28;20413;-46
2021/10/06 13:58:12;;;;;;;6.10;2.70;;;;;;;;;;5012381;28;20415;-45
2021/10/06 14:00:38;;;;;;;4.33;3.43;;;;;;;;;;5012218;28;20913;-46
2021/10/06 14:03:04;;;;;;;5.07;3.00;;;;;;;;;;5011880;28;20416;-45
2021/10/06 14:05:30;;;;;;;7.73;3.83;;;;;;;;;;5012060;28;20454;-45
2021/10/06 14:07:56;;;;;;;3.87;3.30;;;;;;;;;;5012267;28;20709;-46
2021/10/06 14:10:24;;;;;;;3.97;3.67;;;;;;;;;;5012113;28;20429;-46
2021/10/06 14:12:50;;;;;;;4.27;3.40;;;;;;;;;;5011879;28;20488;-45
2021/10/06 14:15:17;;;;;;;7.40;4.00;;;;;;;;;;5012054;28;20413;-46
2021/10/06 14:17:43;;;;;;;4.07;3.77;;;;;;;;;;5012118;28;20963;-47
2021/10/06 14:20:09;;;;;;;5.47;3.93;;;;;;;;;;5011823;28;20920;-47
2021/10/06 14:22:38;;;;;;;5.30;4.80;;;;;;;;;;5011835;28;20415;-46
2021/10/06 14:25:04;;;;;;;4.37;3.90;;;;;;;;;;5011912;28;20483;-45
2021/10/06 14:27:31;;;;;;;4.53;4.13;;;;;;;;;;5011988;28;20411;-46
2021/10/06 14:29:57;;;;;;;4.73;4.33;;;;;;;;;;5011783;28;20435;-48
2021/10/06 14:32:24;;;;;;;4.43;3.80;;;;;;;;;;5011636;28;20474;-48
2021/10/06 14:34:50;;;;;;;3.87;3.57;;;;;;;;;;5011785;28;20565;-48
2021/10/06 14:37:16;;;;;;;3.80;3.47;;;;;;;;;;5011941;28;20960;-46
2021/10/06 14:39:42;;;;;;;3.50;3.27;;;;;;;;;;5011859;28;20442;-46
2021/10/06 14:42:08;;;;;;;4.17;3.87;;;;;;;;;;5011947;28;20407;-46